Time;durP1;ratioP1;P1;durP2;ratioP2;P2;SDS_P1;SDS_P2;PMS_P1;PMS_P2;Temp;Humidity;BMP_temperature;BMP_pressure;BME280_temperature;BME280_humidity;BME280_pressure;Samples;Min_cycle;Max_cycle;Signal;HPM_P1;HPM_P2
2023/09/25 00:02:59;;;;;;;;;;;;;;;18.57;62.33;100980.81;5431905;32;34089;-78
2023/09/25 00:06:02;;;;;;;;;;;;;;;18.59;62.46;100976.22;5418648;32;34076;-78
2023/09/25 00:09:05;;;;;;;;;;;;;;;18.68;61.88;100962.37;5429896;32;34066;-77
2023/09/25 00:12:08;;;;;;;;;;;;;;;18.17;63.41;100959.34;5435020;32;33169;-77
2023/09/25 00:15:10;;;;;;;;;;;;;;;18.46;62.71;100956.66;5431332;32;35528;-81
2023/09/25 00:18:16;;;;;;;;;;;;;;;18.31;63.21;100967.31;5428288;32;34951;-77
2023/09/25 00:21:18;;;;;;;;;;;;;;;18.34;62.95;100956.47;5433735;32;34926;-77
2023/09/25 00:24:21;;;;;;;;;;;;;;;18.02;63.97;100954.94;5434193;32;34302;-80
2023/09/25 00:27:23;;;;;;;;;;;;;;;18.46;62.61;100943.34;5433133;32;34915;-76
2023/09/25 00:30:26;;;;;;;;;;;;;;;17.97;63.90;100941.06;5429539;32;35304;-85
2023/09/25 00:33:28;;;;;;;;;;;;;;;18.05;64.12;100933.50;5432724;32;34353;-78
2023/09/25 00:36:31;;;;;;;;;;;;;;;18.30;63.74;100928.37;5429706;32;34330;-78
2023/09/25 00:39:33;;;;;;;;;;;;;;;18.62;62.72;100936.97;5430895;32;34274;-77
2023/09/25 00:42:35;;;;;;;;;;;;;;;18.77;61.78;100929.84;5418302;32;34333;-75
2023/09/25 00:45:37;;;;;;;;;;;;;;;18.69;62.34;100929.47;5412892;32;34172;-76
2023/09/25 00:48:42;;;;;;;;;;;;;;;18.48;62.54;100931.66;5439453;32;34414;-78
2023/09/25 00:51:44;;;;;;;;;;;;;;;18.08;64.05;100930.62;5413955;32;35603;-77
2023/09/25 00:54:47;;;;;;;;;;;;;;;17.66;65.72;100937.59;5416209;32;34237;-76
2023/09/25 00:57:49;;;;;;;;;;;;;;;18.10;64.62;100932.28;5413937;32;34635;-82
2023/09/25 01:00:52;;;;;;;;;;;;;;;18.79;61.83;100935.06;5428700;32;34139;-76
2023/09/25 01:03:55;;;;;;;;;;;;;;;18.72;61.81;100947.06;5435825;32;33051;-76
2023/09/25 01:06:57;;;;;;;;;;;;;;;18.47;63.63;100953.91;5410876;32;34156;-76
2023/09/25 01:10:06;;;;;;;;;;;;;;;19.04;61.61;100960.94;5430224;32;34496;-76
2023/09/25 01:13:09;;;;;;;;;;;;;;;18.48;62.92;100976.91;5428931;32;34231;-76
2023/09/25 01:16:12;;;;;;;;;;;;;;;18.42;63.59;100977.31;5433136;32;35746;-76
2023/09/25 01:19:14;;;;;;;;;;;;;;;19.08;61.41;100979.31;5434880;32;34203;-78
2023/09/25 01:22:17;;;;;;;;;;;;;;;19.00;60.96;100983.41;5439089;32;34207;-78
2023/09/25 01:25:19;;;;;;;;;;;;;;;18.97;61.91;100986.28;5416135;32;34629;-76
2023/09/25 01:28:22;;;;;;;;;;;;;;;18.84;62.31;100989.72;5427610;32;34385;-76
2023/09/25 01:31:24;;;;;;;;;;;;;;;19.20;60.97;100980.31;5436306;32;34133;-77
2023/09/25 01:34:26;;;;;;;;;;;;;;;19.32;60.66;100979.53;5426914;32;34151;-76
2023/09/25 01:37:28;;;;;;;;;;;;;;;19.13;61.32;100979.03;5426907;32;35751;-76
2023/09/25 01:40:31;;;;;;;;;;;;;;;19.53;60.04;100982.56;5428763;32;34062;-76
2023/09/25 01:43:33;;;;;;;;;;;;;;;19.26;60.55;100977.25;5429400;32;34400;-78
2023/09/25 01:46:35;;;;;;;;;;;;;;;18.50;62.78;100972.34;5420935;32;33957;-79
2023/09/25 01:49:38;;;;;;;;;;;;;;;18.80;62.48;100972.22;5430120;32;33987;-79
2023/09/25 01:52:40;;;;;;;;;;;;;;;18.80;62.15;100960.72;5431554;32;35836;-77
2023/09/25 01:55:43;;;;;;;;;;;;;;;18.38;63.36;100950.03;5415494;32;34194;-78
2023/09/25 01:58:45;;;;;;;;;;;;;;;17.68;65.94;100948.97;5429444;32;34004;-79
2023/09/25 02:01:47;;;;;;;;;;;;;;;18.71;63.16;100938.22;5432124;32;35687;-79
2023/09/25 02:04:49;;;;;;;;;;;;;;;18.78;62.35;100928.87;5431309;32;35379;-77
2023/09/25 02:07:52;;;;;;;;;;;;;;;17.73;65.95;100927.47;5436272;32;34036;-80
2023/09/25 02:10:55;;;;;;;;;;;;;;;18.37;63.95;100931.50;5417170;32;34097;-77
2023/09/25 02:13:57;;;;;;;;;;;;;;;18.34;63.97;100931.69;5431635;32;34743;-80
2023/09/25 02:16:59;;;;;;;;;;;;;;;18.12;65.31;100916.22;5414061;32;32967;-77
2023/09/25 02:20:17;;;;;;;;;;;;;;;18.85;62.71;100908.88;5430202;32;34975;-82
2023/09/25 02:23:20;;;;;;;;;;;;;;;18.67;63.55;100904.75;5434635;32;34203;-77
2023/09/25 02:26:22;;;;;;;;;;;;;;;18.58;64.29;100894.66;5431733;32;34108;-81
2023/09/25 02:29:25;;;;;;;;;;;;;;;18.25;64.73;100877.25;5434771;32;34221;-77
2023/09/25 02:32:27;;;;;;;;;;;;;;;18.23;65.53;100863.19;5416083;32;34204;-80
2023/09/25 02:35:31;;;;;;;;;;;;;;;17.82;66.80;100866.63;5418347;32;33549;-78
2023/09/25 02:38:33;;;;;;;;;;;;;;;17.86;66.65;100864.63;5429473;32;35281;-78
2023/09/25 02:41:36;;;;;;;;;;;;;;;18.19;64.93;100872.31;5415777;32;35303;-82
2023/09/25 02:44:38;;;;;;;;;;;;;;;18.21;65.68;100880.19;5433257;32;34240;-77
2023/09/25 02:47:40;;;;;;;;;;;;;;;18.23;65.45;100887.13;5430751;32;35034;-78
2023/09/25 02:50:42;;;;;;;;;;;;;;;18.24;65.33;100885.31;5431971;32;35077;-77
2023/09/25 02:53:45;;;;;;;;;;;;;;;18.32;64.68;100883.03;5428227;32;34154;-79
2023/09/25 02:56:47;;;;;;;;;;;;;;;17.97;66.36;100887.87;5432939;32;34105;-75
2023/09/25 02:59:49;;;;;;;;;;;;;;;17.84;66.77;100882.50;5430706;32;34476;-75
2023/09/25 03:02:52;;;;;;;;;;;;;;;17.98;66.71;100887.81;5425796;32;34316;-77
2023/09/25 03:05:55;;;;;;;;;;;;;;;17.84;67.26;100893.97;5432711;32;34221;-76
2023/09/25 03:08:57;;;;;;;;;;;;;;;18.08;66.60;100896.06;5431789;32;34976;-79
2023/09/25 03:11:59;;;;;;;;;;;;;;;18.26;65.69;100900.22;5433370;32;34268;-78
2023/09/25 03:15:01;;;;;;;;;;;;;;;17.97;66.28;100910.03;5429636;32;34224;-79
2023/09/25 03:18:04;;;;;;;;;;;;;;;17.70;67.29;100920.50;5433401;32;35393;-79
2023/09/25 03:21:07;;;;;;;;;;;;;;;18.31;65.66;100903.47;5431404;32;34331;-79
2023/09/25 03:24:10;;;;;;;;;;;;;;;18.68;64.08;100898.50;5429674;32;34225;-78
2023/09/25 03:27:13;;;;;;;;;;;;;;;17.77;66.69;100902.41;5433176;32;33767;-76
2023/09/25 03:30:15;;;;;;;;;;;;;;;17.75;67.15;100912.28;5413012;32;34183;-78
2023/09/25 03:33:18;;;;;;;;;;;;;;;17.51;67.81;100917.22;5431388;32;34879;-77
2023/09/25 03:36:20;;;;;;;;;;;;;;;17.65;67.97;100937.69;5414784;32;33326;-77
2023/09/25 03:39:22;;;;;;;;;;;;;;;17.48;68.15;100946.66;5412727;32;34819;-76
2023/09/25 03:42:25;;;;;;;;;;;;;;;17.69;67.23;100945.37;5433249;32;35363;-76
2023/09/25 03:45:27;;;;;;;;;;;;;;;18.25;65.67;100954.41;5429556;32;34245;-76
2023/09/25 03:48:30;;;;;;;;;;;;;;;18.28;65.24;100956.00;5430961;32;34201;-77
2023/09/25 03:51:33;;;;;;;;;;;;;;;17.99;66.83;100971.09;5428052;32;34243;-77
2023/09/25 03:54:35;;;;;;;;;;;;;;;18.27;65.13;100979.09;5430205;32;34900;-78
2023/09/25 03:57:37;;;;;;;;;;;;;;;18.78;63.96;100992.78;5431081;32;36223;-77
2023/09/25 04:00:40;;;;;;;;;;;;;;;18.83;63.17;100998.69;5432560;32;33601;-76
2023/09/25 04:03:42;;;;;;;;;;;;;;;18.30;64.99;100994.88;5430456;32;33016;-76
2023/09/25 04:06:45;;;;;;;;;;;;;;;18.39;64.70;101004.94;5436419;32;34122;-79
2023/09/25 04:09:47;;;;;;;;;;;;;;;18.21;66.18;101007.88;5434004;32;35020;-76
2023/09/25 04:12:49;;;;;;;;;;;;;;;17.78;67.66;100997.19;5428155;32;34213;-76
2023/09/25 04:15:52;;;;;;;;;;;;;;;18.13;66.24;101008.34;5417593;32;35528;-76
2023/09/25 04:18:54;;;;;;;;;;;;;;;18.11;66.24;101018.25;5410767;32;34777;-78
2023/09/25 04:21:59;;;;;;;;;;;;;;;18.46;65.22;101021.41;5414617;32;35493;-78
2023/09/25 04:25:02;;;;;;;;;;;;;;;18.46;65.23;101023.19;5430721;32;34250;-76
2023/09/25 04:28:07;;;;;;;;;;;;;;;19.09;63.15;101023.66;5430882;32;35217;-77
2023/09/25 04:31:12;;;;;;;;;;;;;;;19.36;62.37;101023.66;5436585;32;34809;-76
2023/09/25 04:34:15;;;;;;;;;;;;;;;18.97;63.61;101028.91;5432547;32;34337;-76
2023/09/25 04:37:17;;;;;;;;;;;;;;;19.24;62.27;101032.44;5429397;32;34232;-77
2023/09/25 04:40:22;;;;;;;;;;;;;;;19.36;62.06;101036.13;5433495;32;34270;-77
2023/09/25 04:43:25;;;;;;;;;;;;;;;18.64;64.50;101030.06;5415896;32;34325;-77
2023/09/25 04:46:28;;;;;;;;;;;;;;;19.24;63.16;101035.09;5435658;32;34288;-76
2023/09/25 04:49:30;;;;;;;;;;;;;;;18.67;64.86;101036.06;5429116;32;34275;-76
2023/09/25 04:52:33;;;;;;;;;;;;;;;19.17;62.85;101036.47;5421351;32;34125;-76
2023/09/25 04:55:37;;;;;;;;;;;;;;;19.23;63.06;101035.22;5432581;32;34849;-76
2023/09/25 04:58:39;;;;;;;;;;;;;;;18.69;64.01;101033.31;5429357;32;34179;-77
2023/09/25 05:01:42;;;;;;;;;;;;;;;18.97;64.26;101040.41;5428342;32;34259;-76
2023/09/25 05:04:44;;;;;;;;;;;;;;;18.49;65.69;101044.31;5429525;32;35347;-78
2023/09/25 05:07:47;;;;;;;;;;;;;;;18.34;66.44;101046.09;5414763;32;34163;-76
2023/09/25 05:10:50;;;;;;;;;;;;;;;18.94;64.40;101040.63;5427742;32;34321;-76
2023/09/25 05:13:52;;;;;;;;;;;;;;;19.03;64.23;101039.16;5431477;32;35366;-77
2023/09/25 05:16:54;;;;;;;;;;;;;;;18.63;65.40;101047.84;5432363;32;34772;-77
2023/09/25 05:19:56;;;;;;;;;;;;;;;18.98;64.85;101043.94;5430432;32;34272;-76
2023/09/25 05:22:59;;;;;;;;;;;;;;;19.61;62.83;101044.25;5430740;32;35273;-78
2023/09/25 05:26:01;;;;;;;;;;;;;;;20.02;61.34;101048.59;5433149;32;34279;-78
2023/09/25 05:29:04;;;;;;;;;;;;;;;19.34;63.05;101048.72;5431149;32;35602;-77
2023/09/25 05:32:06;;;;;;;;;;;;;;;19.27;63.30;101058.06;5427579;32;34418;-77
2023/09/25 05:35:09;;;;;;;;;;;;;;;19.16;63.73;101050.75;5413254;32;34174;-77
2023/09/25 05:38:11;;;;;;;;;;;;;;;18.39;67.24;101052.00;5422012;32;34131;-79
2023/09/25 05:41:14;;;;;;;;;;;;;;;18.71;66.23;101057.19;5430080;32;34434;-81
2023/09/25 05:44:16;;;;;;;;;;;;;;;18.67;65.62;101057.34;5414371;32;34336;-76
2023/09/25 05:47:18;;;;;;;;;;;;;;;18.96;65.25;101056.50;5432237;32;35556;-82
2023/09/25 05:50:20;;;;;;;;;;;;;;;19.31;64.24;101049.75;5429413;32;35358;-81
2023/09/25 05:53:25;;;;;;;;;;;;;;;19.33;63.75;101071.00;5417890;32;35495;-79
2023/09/25 05:56:28;;;;;;;;;;;;;;;20.22;60.91;101079.25;5414930;32;33315;-82
2023/09/25 05:59:30;;;;;;;;;;;;;;;19.14;64.35;101085.50;5428751;32;33187;-79
2023/09/25 06:02:33;;;;;;;;;;;;;;;19.29;63.94;101093.44;5425391;32;33958;-83
2023/09/25 06:05:38;;;;;;;;;;;;;;;20.00;62.06;101102.06;5423226;32;34250;-85
2023/09/25 06:08:40;;;;;;;;;;;;;;;20.84;58.75;101095.44;5427620;32;34637;-82
2023/09/25 06:11:45;;;;;;;;;;;;;;;20.35;60.12;101106.84;5419624;32;33986;-81
2023/09/25 06:14:56;;;;;;;;;;;;;;;20.57;59.63;101111.59;5420231;32;35370;-84
2023/09/25 06:18:09;;;;;;;;;;;;;;;20.64;59.59;101106.66;5423819;32;33742;-81
2023/09/25 06:21:13;;;;;;;;;;;;;;;20.25;60.98;101109.28;5409077;32;34548;-76
2023/09/25 06:24:15;;;;;;;;;;;;;;;19.92;61.67;101096.41;5411426;32;33149;-76
2023/09/25 06:27:17;;;;;;;;;;;;;;;20.07;60.96;101096.31;5423168;32;34459;-77
2023/09/25 06:30:22;;;;;;;;;;;;;;;20.19;60.90;101101.69;5405911;32;34234;-79
2023/09/25 06:33:25;;;;;;;;;;;;;;;20.82;58.39;101097.38;5423073;32;35584;-78
2023/09/25 06:36:28;;;;;;;;;;;;;;;20.23;60.52;101107.69;5419440;32;35321;-76
2023/09/25 06:39:30;;;;;;;;;;;;;;;21.19;58.18;101097.38;5412787;32;35750;-81
2023/09/25 06:42:32;;;;;;;;;;;;;;;21.05;57.75;101117.94;5422661;32;35348;-77
2023/09/25 06:45:38;;;;;;;;;;;;;;;20.65;59.36;101124.41;5409388;32;34725;-77
2023/09/25 06:48:40;;;;;;;;;;;;;;;20.18;60.90;101132.00;5414327;32;35203;-76
2023/09/25 06:51:43;;;;;;;;;;;;;;;20.86;59.29;101132.72;5409986;32;34111;-77
2023/09/25 06:54:50;;;;;;;;;;;;;;;21.01;58.65;101143.19;5416429;32;34219;-78
2023/09/25 06:57:52;;;;;;;;;;;;;;;21.62;56.73;101141.47;5418808;32;34925;-77
2023/09/25 07:00:56;;;;;;;;;;;;;;;21.92;56.12;101145.53;5424561;32;34483;-77
2023/09/25 07:03:59;;;;;;;;;;;;;;;21.18;58.10;101141.13;5410366;32;34274;-78
2023/09/25 07:07:01;;;;;;;;;;;;;;;22.34;54.46;101153.97;5422770;32;35865;-81
2023/09/25 07:10:09;;;;;;;;;;;;;;;22.35;54.70;101158.41;5410941;32;33849;-79
2023/09/25 07:13:12;;;;;;;;;;;;;;;22.20;54.48;101151.50;5426135;32;35873;-79
2023/09/25 07:16:14;;;;;;;;;;;;;;;22.27;54.98;101156.28;5427838;32;34093;-79
2023/09/25 07:19:16;;;;;;;;;;;;;;;23.01;53.12;101150.62;5424215;32;34293;-79
2023/09/25 07:22:20;;;;;;;;;;;;;;;23.75;50.46;101144.56;5419144;32;35110;-78
2023/09/25 07:25:24;;;;;;;;;;;;;;;25.11;47.22;101138.31;5413001;32;34401;-76
2023/09/25 07:28:27;;;;;;;;;;;;;;;25.38;46.12;101134.19;5419602;32;34184;-76
2023/09/25 07:31:30;;;;;;;;;;;;;;;25.90;44.53;101135.72;5410226;32;34004;-78
2023/09/25 07:34:32;;;;;;;;;;;;;;;25.59;45.68;101131.41;5422544;32;34673;-78
2023/09/25 07:37:34;;;;;;;;;;;;;;;27.19;42.68;101126.28;5427273;32;33279;-84
2023/09/25 07:40:36;;;;;;;;;;;;;;;26.89;43.05;101147.06;5413820;32;34070;-79
2023/09/25 07:43:39;;;;;;;;;;;;;;;28.82;38.85;101138.59;5425634;32;34445;-79
2023/09/25 07:46:59;;;;;;;;;;;;;;;27.32;41.88;101144.81;5426288;32;34272;-80
2023/09/25 07:50:04;;;;;;;;;;;;;;;27.48;41.72;101140.44;5422736;32;33141;-79
2023/09/25 07:53:07;;;;;;;;;;;;;;;27.43;41.37;101153.53;5423357;32;33084;-76
2023/09/25 07:56:09;;;;;;;;;;;;;;;26.28;44.18;101155.56;5420390;32;34412;-77
2023/09/25 07:59:12;;;;;;;;;;;;;;;27.77;41.05;101145.69;5421300;32;33981;-78
2023/09/25 08:02:20;;;;;;;;;;;;;;;26.18;45.15;101160.94;5417008;32;34883;-85
2023/09/25 08:05:28;;;;;;;;;;;;;;;26.75;43.24;101168.28;5415766;32;35293;-78
2023/09/25 08:08:30;;;;;;;;;;;;;;;25.09;47.58;101174.41;5423464;32;35406;-77
2023/09/25 08:11:32;;;;;;;;;;;;;;;25.59;47.14;101185.22;5423359;32;35731;-78
2023/09/25 08:14:35;;;;;;;;;;;;;;;25.84;46.57;101178.50;5423520;32;34669;-79
2023/09/25 08:17:39;;;;;;;;;;;;;;;25.42;48.30;101183.19;5422888;32;36105;-87
2023/09/25 08:20:42;;;;;;;;;;;;;;;25.39;47.85;101189.69;5423381;32;34093;-78
2023/09/25 08:23:48;;;;;;;;;;;;;;;25.57;47.73;101190.75;5410426;32;34441;-78
2023/09/25 08:26:51;;;;;;;;;;;;;;;25.54;47.46;101184.78;5420259;32;34369;-79
2023/09/25 08:30:08;;;;;;;;;;;;;;;23.85;52.31;101176.88;5424488;32;33877;-77
2023/09/25 08:33:15;;;;;;;;;;;;;;;24.02;52.58;101180.81;5422624;32;34132;-77
2023/09/25 08:36:18;;;;;;;;;;;;;;;24.23;52.30;101173.69;5409522;32;34705;-79
2023/09/25 08:39:21;;;;;;;;;;;;;;;24.07;52.73;101183.13;5410869;32;35338;-77
2023/09/25 08:42:26;;;;;;;;;;;;;;;24.90;50.95;101177.84;5422885;32;34339;-76
2023/09/25 08:45:29;;;;;;;;;;;;;;;25.01;49.77;101174.22;5405407;32;36118;-77
2023/09/25 08:48:34;;;;;;;;;;;;;;;25.25;49.71;101168.56;5419280;32;34279;-79
2023/09/25 08:51:45;;;;;;;;;;;;;;;23.09;55.53;101177.66;5411967;32;35663;-77
2023/09/25 08:55:02;;;;;;;;;;;;;;;23.27;55.50;101178.03;5418738;32;34472;-81
2023/09/25 08:58:07;;;;;;;;;;;;;;;23.93;53.68;101186.97;5422432;32;35887;-78
2023/09/25 09:01:12;;;;;;;;;;;;;;;23.94;54.02;101180.62;5408985;32;35624;-77
2023/09/25 09:04:17;;;;;;;;;;;;;;;24.17;53.51;101178.72;5423602;32;34256;-78
2023/09/25 09:07:23;;;;;;;;;;;;;;;23.76;54.12;101181.19;5420878;32;34186;-78
2023/09/25 09:10:39;;;;;;;;;;;;;;;22.83;57.29;101183.22;5420122;32;35378;-79
2023/09/25 09:13:43;;;;;;;;;;;;;;;23.06;57.56;101192.19;5417947;32;34352;-76
2023/09/25 09:16:57;;;;;;;;;;;;;;;23.83;54.97;101186.00;5422042;32;34336;-76
2023/09/25 09:20:00;;;;;;;;;;;;;;;23.42;56.07;101193.75;5405546;32;34162;-75
2023/09/25 09:23:02;;;;;;;;;;;;;;;23.05;57.67;101190.44;5425719;32;34519;-76
2023/09/25 09:26:05;;;;;;;;;;;;;;;24.27;54.08;101196.59;5420619;32;34379;-77
2023/09/25 09:29:10;;;;;;;;;;;;;;;23.36;56.85;101193.37;5422556;32;33398;-78
2023/09/25 09:32:15;;;;;;;;;;;;;;;23.90;55.47;101192.63;5425697;32;35129;-78
2023/09/25 09:35:24;;;;;;;;;;;;;;;23.98;55.09;101191.00;5419778;32;35388;-76
2023/09/25 09:38:28;;;;;;;;;;;;;;;24.03;55.08;101185.25;5421170;32;34898;-77
2023/09/25 09:41:31;;;;;;;;;;;;;;;23.95;55.67;101174.25;5422329;32;35432;-78
2023/09/25 09:44:43;;;;;;;;;;;;;;;24.71;53.46;101177.72;5429182;32;35335;-78
2023/09/25 09:47:46;;;;;;;;;;;;;;;25.04;52.43;101171.25;5424654;32;34149;-77
2023/09/25 09:50:50;;;;;;;;;;;;;;;25.28;51.66;101170.97;5406610;32;35366;-80
2023/09/25 09:53:59;;;;;;;;;;;;;;;25.85;49.61;101167.59;5427331;32;34441;-83
2023/09/25 09:57:02;;;;;;;;;;;;;;;26.36;48.66;101171.84;5418488;32;34453;-77
2023/09/25 10:00:06;;;;;;;;;;;;;;;25.82;50.15;101170.56;5422945;32;35586;-80
2023/09/25 10:03:08;;;;;;;;;;;;;;;26.63;48.14;101173.00;5420881;32;35673;-78
2023/09/25 10:06:11;;;;;;;;;;;;;;;26.98;46.88;101180.41;5423747;32;35416;-78
2023/09/25 10:09:18;;;;;;;;;;;;;;;26.50;47.67;101185.91;5411183;32;34329;-78
2023/09/25 10:12:39;;;;;;;;;;;;;;;27.59;44.86;101179.87;5424339;32;33846;-77
2023/09/25 10:15:52;;;;;;;;;;;;;;;27.67;44.42;101173.72;5417558;32;34141;-77
2023/09/25 10:18:55;;;;;;;;;;;;;;;27.33;45.19;101176.19;5418661;32;35476;-76
2023/09/25 10:22:12;;;;;;;;;;;;;;;27.02;46.25;101175.56;5408660;32;34413;-78
2023/09/25 10:25:15;;;;;;;;;;;;;;;25.98;49.02;101177.25;5424647;32;33597;-79
2023/09/25 10:28:27;;;;;;;;;;;;;;;24.64;53.13;101185.47;5424311;32;36222;-78
2023/09/25 10:31:32;;;;;;;;;;;;;;;26.55;48.81;101178.25;5423183;32;35746;-78
2023/09/25 10:34:34;;;;;;;;;;;;;;;25.57;50.47;101182.69;5427343;32;35367;-77
2023/09/25 10:37:36;;;;;;;;;;;;;;;25.44;50.78;101176.69;5429170;32;35980;-77
2023/09/25 10:40:41;;;;;;;;;;;;;;;25.50;51.55;101169.88;5429675;32;33144;-86
2023/09/25 10:43:43;;;;;;;;;;;;;;;25.87;50.47;101172.84;5424840;32;35645;-78
2023/09/25 10:46:47;;;;;;;;;;;;;;;25.86;51.41;101174.69;5424691;32;35423;-76
2023/09/25 10:49:52;;;;;;;;;;;;;;;26.19;50.00;101173.41;5425190;32;34071;-77
2023/09/25 10:52:57;;;;;;;;;;;;;;;26.03;50.14;101175.00;5412478;32;34172;-83
2023/09/25 10:56:02;;;;;;;;;;;;;;;26.72;47.39;101170.25;5421149;32;35596;-79
2023/09/25 10:59:05;;;;;;;;;;;;;;;26.41;48.67;101172.31;5421431;32;35877;-81
2023/09/25 11:02:13;;;;;;;;;;;;;;;26.50;48.87;101170.59;5424276;32;35791;-81
2023/09/25 11:05:21;;;;;;;;;;;;;;;27.01;47.31;101163.94;5423247;32;33243;-80
2023/09/25 11:08:25;;;;;;;;;;;;;;;26.51;48.39;101161.50;5428385;32;34345;-80
2023/09/25 11:11:32;;;;;;;;;;;;;;;26.89;47.73;101157.88;5417511;32;32784;-79
2023/09/25 11:14:36;;;;;;;;;;;;;;;25.55;50.96;101152.34;5421514;32;34967;-89
2023/09/25 11:17:38;;;;;;;;;;;;;;;27.35;46.71;101148.03;5426949;32;35131;-81
2023/09/25 11:20:43;;;;;;;;;;;;;;;27.32;46.57;101140.25;5423028;32;34326;-79
2023/09/25 11:23:48;;;;;;;;;;;;;;;27.29;46.74;101137.00;5429282;32;35280;-76
2023/09/25 11:26:57;;;;;;;;;;;;;;;26.58;48.89;101149.16;5410474;32;34836;-78
2023/09/25 11:30:05;;;;;;;;;;;;;;;27.06;47.66;101117.69;5414904;32;34235;-78
2023/09/25 11:33:08;;;;;;;;;;;;;;;27.78;45.79;101133.88;5427208;32;34416;-84
2023/09/25 11:36:11;;;;;;;;;;;;;;;27.38;46.73;101133.41;5424581;32;35274;-78
2023/09/25 11:39:17;;;;;;;;;;;;;;;27.42;46.42;101127.53;5425547;32;34656;-78
2023/09/25 11:42:21;;;;;;;;;;;;;;;26.59;48.46;101126.59;5421651;32;34310;-78
2023/09/25 11:45:24;;;;;;;;;;;;;;;27.30;46.81;101125.19;5425233;32;33065;-81
2023/09/25 11:48:26;;;;;;;;;;;;;;;28.65;44.14;101117.88;5423960;32;34290;-77
2023/09/25 11:51:36;;;;;;;;;;;;;;;27.98;44.83;101118.37;5428921;32;34016;-77
2023/09/25 11:54:38;;;;;;;;;;;;;;;28.83;43.62;101110.53;5429870;32;34081;-81
2023/09/25 11:57:41;;;;;;;;;;;;;;;28.37;42.81;101118.03;5425887;32;35431;-77
2023/09/25 12:00:43;;;;;;;;;;;;;;;27.46;45.53;101110.06;5410100;32;35571;-79
2023/09/25 12:03:46;;;;;;;;;;;;;;;27.66;45.10;101109.91;5427229;32;35865;-78
2023/09/25 12:06:51;;;;;;;;;;;;;;;27.75;44.26;101100.91;5427928;32;34282;-79
2023/09/25 12:10:08;;;;;;;;;;;;;;;27.60;45.03;101097.87;5413997;32;34044;-80
2023/09/25 12:13:30;;;;;;;;;;;;;;;27.56;44.92;101093.78;5404576;32;33994;-76
2023/09/25 12:16:33;;;;;;;;;;;;;;;27.73;44.63;101090.28;5404792;32;34158;-78
2023/09/25 12:19:39;;;;;;;;;;;;;;;27.82;43.97;101091.19;5392901;32;35341;-78
2023/09/25 12:22:42;;;;;;;;;;;;;;;27.76;44.16;101089.12;5399770;32;34176;-81
2023/09/25 12:25:45;;;;;;;;;;;;;;;27.10;45.27;101089.38;5391089;32;33457;-80
2023/09/25 12:28:48;;;;;;;;;;;;;;;26.65;46.54;101080.16;5404521;32;36761;-76
2023/09/25 12:31:50;;;;;;;;;;;;;;;27.15;46.06;101079.84;5404326;32;35082;-78
2023/09/25 12:34:52;;;;;;;;;;;;;;;27.56;45.21;101071.31;5402425;32;34046;-82
2023/09/25 12:37:55;;;;;;;;;;;;;;;27.21;46.03;101071.13;5401544;32;33914;-80
2023/09/25 12:40:58;;;;;;;;;;;;;;;27.82;44.59;101071.44;5403515;32;33703;-77
2023/09/25 12:44:00;;;;;;;;;;;;;;;27.18;45.89;101070.59;5401768;32;33855;-77
2023/09/25 12:47:02;;;;;;;;;;;;;;;27.36;45.47;101070.63;5421032;32;34344;-78
2023/09/25 12:50:11;;;;;;;;;;;;;;;27.24;45.46;101070.84;5428343;32;33882;-78
2023/09/25 12:53:13;;;;;;;;;;;;;;;29.08;41.54;101060.97;5418980;32;35411;-79
2023/09/25 12:56:15;;;;;;;;;;;;;;;28.28;43.26;101059.50;5409946;32;33987;-76
2023/09/25 12:59:17;;;;;;;;;;;;;;;28.37;42.97;101069.38;5403791;32;34157;-78
2023/09/25 13:02:20;;;;;;;;;;;;;;;31.50;36.95;101061.03;5426523;32;36078;-79
2023/09/25 13:05:22;;;;;;;;;;;;;;;31.85;35.64;101053.34;5424523;32;35097;-80
2023/09/25 13:08:25;;;;;;;;;;;;;;;31.16;36.29;101070.34;5430722;32;34467;-82
2023/09/25 13:11:34;;;;;;;;;;;;;;;31.00;36.66;101065.03;5424788;32;35701;-77
2023/09/25 13:14:39;;;;;;;;;;;;;;;34.95;30.38;101056.00;5413047;32;34379;-80
2023/09/25 13:17:41;;;;;;;;;;;;;;;32.98;32.79;101069.53;5423307;32;35543;-78
2023/09/25 13:20:44;;;;;;;;;;;;;;;33.95;31.33;101064.56;5413048;32;33905;-81
2023/09/25 13:23:46;;;;;;;;;;;;;;;36.32;28.02;101058.34;5400021;32;34179;-79
2023/09/25 13:26:50;;;;;;;;;;;;;;;36.42;28.13;101055.22;5425124;32;35600;-77
2023/09/25 13:29:52;;;;;;;;;;;;;;;37.21;26.97;101056.00;5424394;32;35962;-81
2023/09/25 13:32:55;;;;;;;;;;;;;;;32.91;33.27;101052.25;5414067;32;34176;-78
2023/09/25 13:35:57;;;;;;;;;;;;;;;32.87;33.24;101059.97;5426160;32;34141;-85
2023/09/25 13:39:00;;;;;;;;;;;;;;;31.30;36.13;101059.78;5427512;32;34348;-80
2023/09/25 13:42:11;;;;;;;;;;;;;;;29.99;39.05;101056.56;5412451;32;35002;-75
2023/09/25 13:45:15;;;;;;;;;;;;;;;29.18;41.25;101054.59;5427116;32;34758;-77
2023/09/25 13:48:17;;;;;;;;;;;;;;;29.84;39.77;101049.12;5415811;32;34896;-78
2023/09/25 13:51:19;;;;;;;;;;;;;;;28.07;43.45;101057.97;5426264;32;34868;-80
2023/09/25 13:54:23;;;;;;;;;;;;;;;27.39;45.37;101048.72;5411256;32;34863;-80
2023/09/25 13:57:26;;;;;;;;;;;;;;;27.55;45.36;101046.19;5423052;32;34006;-79
2023/09/25 14:00:30;;;;;;;;;;;;;;;27.70;45.20;101046.53;5416775;32;34749;-88
2023/09/25 14:03:34;;;;;;;;;;;;;;;28.62;43.69;101031.66;5432261;32;34563;-81
2023/09/25 14:06:38;;;;;;;;;;;;;;;27.89;44.01;101029.31;5419268;32;35173;-85
2023/09/25 14:09:43;;;;;;;;;;;;;;;27.39;44.25;101033.37;5429563;32;34217;-80
2023/09/25 14:12:48;;;;;;;;;;;;;;;27.96;43.51;101030.37;5434641;32;34241;-82
2023/09/25 14:15:51;;;;;;;;;;;;;;;28.20;43.05;101032.38;5428029;32;35473;-77
2023/09/25 14:18:56;;;;;;;;;;;;;;;28.09;43.51;101035.38;5427102;32;35042;-80
2023/09/25 14:21:59;;;;;;;;;;;;;;;27.51;45.05;101032.16;5426462;32;34773;-78
2023/09/25 14:25:02;;;;;;;;;;;;;;;28.08;43.94;101037.22;5424889;32;34229;-80
2023/09/25 14:28:04;;;;;;;;;;;;;;;27.32;46.85;101040.41;5424512;32;33688;-80
2023/09/25 14:31:07;;;;;;;;;;;;;;;26.97;48.36;101039.28;5399718;32;34424;-85
2023/09/25 14:34:09;;;;;;;;;;;;;;;26.86;48.98;101038.66;5429991;32;33914;-79
2023/09/25 14:37:11;;;;;;;;;;;;;;;26.82;49.55;101032.72;5429216;32;34337;-80
2023/09/25 14:40:15;;;;;;;;;;;;;;;26.85;49.84;101036.94;5420094;32;34096;-79
2023/09/25 14:43:18;;;;;;;;;;;;;;;26.65;50.65;101033.50;5410914;32;35408;-79
2023/09/25 14:46:20;;;;;;;;;;;;;;;26.96;49.87;101032.19;5412496;32;33103;-79
2023/09/25 14:49:24;;;;;;;;;;;;;;;27.07;49.85;101038.44;5423283;32;34042;-80
2023/09/25 14:52:28;;;;;;;;;;;;;;;27.61;48.34;101033.91;5424216;32;35568;-78
2023/09/25 14:55:31;;;;;;;;;;;;;;;27.12;49.41;101022.66;5421335;32;34180;-79
2023/09/25 14:58:53;;;;;;;;;;;;;;;27.44;49.07;101032.94;5418509;32;34661;-77
2023/09/25 15:01:55;;;;;;;;;;;;;;;27.29;48.85;101021.81;5429837;32;34121;-81
2023/09/25 15:04:59;;;;;;;;;;;;;;;26.72;50.22;101038.13;5423673;32;34180;-80
2023/09/25 15:08:02;;;;;;;;;;;;;;;26.52;50.95;101030.28;5419409;32;33998;-82
2023/09/25 15:11:04;;;;;;;;;;;;;;;26.57;50.41;101036.09;5428769;32;33991;-82
2023/09/25 15:14:06;;;;;;;;;;;;;;;26.45;50.64;101038.94;5426238;32;34487;-83
2023/09/25 15:17:09;;;;;;;;;;;;;;;26.54;50.16;101041.78;5427692;32;32984;-81
2023/09/25 15:20:14;;;;;;;;;;;;;;;26.41;50.57;101037.56;5428037;32;33873;-80
2023/09/25 15:23:17;;;;;;;;;;;;;;;26.68;50.08;101042.16;5427126;32;34735;-80
2023/09/25 15:26:19;;;;;;;;;;;;;;;26.64;50.30;101042.56;5423792;32;34387;-79
2023/09/25 15:29:21;;;;;;;;;;;;;;;27.04;49.33;101038.69;5425637;32;34370;-80
2023/09/25 15:32:26;;;;;;;;;;;;;;;27.26;48.62;101041.00;5427171;32;34373;-79
2023/09/25 15:35:28;;;;;;;;;;;;;;;26.96;49.32;101045.69;5423702;32;35460;-82
2023/09/25 15:38:32;;;;;;;;;;;;;;;27.42;48.16;101048.41;5427806;32;34370;-79
2023/09/25 15:41:35;;;;;;;;;;;;;;;26.88;49.35;101044.75;5428086;32;33571;-78
2023/09/25 15:44:37;;;;;;;;;;;;;;;26.84;49.82;101049.56;5430393;32;34321;-81